sensor_id;sensor_type;location;lat;lon;timestamp;P1;durP1;ratioP1;P2;durP2;ratioP2
66270;SDS011;53063;39.614;8.814;2024-02-28T00:02:02;3.60;;;1.00;;
66270;SDS011;53063;39.614;8.814;2024-02-28T00:04:28;1.30;;;0.88;;
66270;SDS011;53063;39.614;8.814;2024-02-28T00:06:54;1.50;;;0.95;;
66270;SDS011;53063;39.614;8.814;2024-02-28T00:09:20;4.25;;;1.10;;
66270;SDS011;53063;39.614;8.814;2024-02-28T00:11:46;1.48;;;0.82;;
66270;SDS011;53063;39.614;8.814;2024-02-28T00:14:13;1.48;;;0.90;;
66270;SDS011;53063;39.614;8.814;2024-02-28T00:16:42;3.10;;;1.30;;
66270;SDS011;53063;39.614;8.814;2024-02-28T00:19:09;3.17;;;1.30;;
66270;SDS011;53063;39.614;8.814;2024-02-28T00:21:39;1.38;;;1.08;;
66270;SDS011;53063;39.614;8.814;2024-02-28T00:24:05;3.17;;;1.40;;
66270;SDS011;53063;39.614;8.814;2024-02-28T00:26:32;2.47;;;1.17;;
66270;SDS011;53063;39.614;8.814;2024-02-28T00:28:57;2.60;;;1.33;;
66270;SDS011;53063;39.614;8.814;2024-02-28T00:31:23;5.22;;;1.70;;
66270;SDS011;53063;39.614;8.814;2024-02-28T00:33:49;2.40;;;1.10;;
66270;SDS011;53063;39.614;8.814;2024-02-28T00:36:15;1.35;;;0.90;;
66270;SDS011;53063;39.614;8.814;2024-02-28T00:38:41;1.88;;;0.88;;
66270;SDS011;53063;39.614;8.814;2024-02-28T00:41:08;1.35;;;0.80;;
66270;SDS011;53063;39.614;8.814;2024-02-28T00:43:34;2.15;;;0.90;;
66270;SDS011;53063;39.614;8.814;2024-02-28T00:46:00;2.55;;;0.95;;
66270;SDS011;53063;39.614;8.814;2024-02-28T00:48:26;2.63;;;1.02;;
66270;SDS011;53063;39.614;8.814;2024-02-28T00:50:52;1.10;;;0.77;;
66270;SDS011;53063;39.614;8.814;2024-02-28T00:53:19;1.42;;;1.15;;
66270;SDS011;53063;39.614;8.814;2024-02-28T00:55:45;3.97;;;1.17;;
66270;SDS011;53063;39.614;8.814;2024-02-28T00:58:11;2.22;;;1.00;;
66270;SDS011;53063;39.614;8.814;2024-02-28T01:00:37;1.75;;;0.90;;
66270;SDS011;53063;39.614;8.814;2024-02-28T01:03:03;3.42;;;0.60;;
66270;SDS011;53063;39.614;8.814;2024-02-28T01:05:32;1.50;;;0.70;;
66270;SDS011;53063;39.614;8.814;2024-02-28T01:07:58;0.75;;;0.50;;
66270;SDS011;53063;39.614;8.814;2024-02-28T01:10:24;0.88;;;0.68;;
66270;SDS011;53063;39.614;8.814;2024-02-28T01:12:49;2.50;;;0.73;;
66270;SDS011;53063;39.614;8.814;2024-02-28T01:15:15;1.48;;;0.50;;
66270;SDS011;53063;39.614;8.814;2024-02-28T01:17:41;2.20;;;0.50;;
66270;SDS011;53063;39.614;8.814;2024-02-28T01:20:07;1.73;;;0.68;;
66270;SDS011;53063;39.614;8.814;2024-02-28T01:22:34;1.20;;;0.60;;
66270;SDS011;53063;39.614;8.814;2024-02-28T01:25:00;0.98;;;0.70;;
66270;SDS011;53063;39.614;8.814;2024-02-28T01:27:28;2.78;;;1.00;;
66270;SDS011;53063;39.614;8.814;2024-02-28T01:29:54;1.48;;;0.90;;
66270;SDS011;53063;39.614;8.814;2024-02-28T01:32:20;1.65;;;0.88;;
66270;SDS011;53063;39.614;8.814;2024-02-28T01:34:46;2.92;;;1.17;;
66270;SDS011;53063;39.614;8.814;2024-02-28T01:37:12;1.50;;;1.00;;
66270;SDS011;53063;39.614;8.814;2024-02-28T01:39:38;2.80;;;1.00;;
66270;SDS011;53063;39.614;8.814;2024-02-28T01:42:04;2.38;;;0.95;;
66270;SDS011;53063;39.614;8.814;2024-02-28T01:44:30;1.42;;;0.80;;
66270;SDS011;53063;39.614;8.814;2024-02-28T01:46:56;2.53;;;1.42;;
66270;SDS011;53063;39.614;8.814;2024-02-28T01:49:23;3.28;;;1.38;;
66270;SDS011;53063;39.614;8.814;2024-02-28T01:51:50;3.97;;;1.30;;
66270;SDS011;53063;39.614;8.814;2024-02-28T01:54:18;2.17;;;1.10;;
66270;SDS011;53063;39.614;8.814;2024-02-28T01:56:46;1.98;;;1.23;;
66270;SDS011;53063;39.614;8.814;2024-02-28T01:59:12;3.75;;;1.10;;
66270;SDS011;53063;39.614;8.814;2024-02-28T02:01:38;1.85;;;1.23;;
66270;SDS011;53063;39.614;8.814;2024-02-28T02:04:05;1.35;;;1.00;;
66270;SDS011;53063;39.614;8.814;2024-02-28T02:06:31;1.60;;;1.27;;
66270;SDS011;53063;39.614;8.814;2024-02-28T02:08:58;1.98;;;1.02;;
66270;SDS011;53063;39.614;8.814;2024-02-28T02:11:24;1.58;;;1.10;;
66270;SDS011;53063;39.614;8.814;2024-02-28T02:13:50;1.58;;;1.30;;
66270;SDS011;53063;39.614;8.814;2024-02-28T02:16:20;1.50;;;1.17;;
66270;SDS011;53063;39.614;8.814;2024-02-28T02:18:51;2.88;;;1.30;;
66270;SDS011;53063;39.614;8.814;2024-02-28T02:21:18;1.88;;;1.20;;
66270;SDS011;53063;39.614;8.814;2024-02-28T02:23:48;2.20;;;1.30;;
66270;SDS011;53063;39.614;8.814;2024-02-28T02:26:14;1.98;;;1.15;;
66270;SDS011;53063;39.614;8.814;2024-02-28T02:28:39;2.95;;;0.95;;
66270;SDS011;53063;39.614;8.814;2024-02-28T02:31:05;2.10;;;1.20;;
66270;SDS011;53063;39.614;8.814;2024-02-28T02:33:31;3.20;;;1.20;;
66270;SDS011;53063;39.614;8.814;2024-02-28T02:35:57;2.83;;;1.13;;
66270;SDS011;53063;39.614;8.814;2024-02-28T02:38:23;1.67;;;1.20;;
66270;SDS011;53063;39.614;8.814;2024-02-28T02:40:49;1.70;;;1.05;;
66270;SDS011;53063;39.614;8.814;2024-02-28T02:43:16;1.30;;;0.90;;
66270;SDS011;53063;39.614;8.814;2024-02-28T02:45:42;2.70;;;1.45;;
66270;SDS011;53063;39.614;8.814;2024-02-28T02:48:09;1.90;;;1.27;;
66270;SDS011;53063;39.614;8.814;2024-02-28T02:50:35;3.95;;;1.40;;
66270;SDS011;53063;39.614;8.814;2024-02-28T02:53:06;2.22;;;1.20;;
66270;SDS011;53063;39.614;8.814;2024-02-28T02:55:34;2.28;;;1.20;;
66270;SDS011;53063;39.614;8.814;2024-02-28T02:58:00;3.60;;;1.15;;
66270;SDS011;53063;39.614;8.814;2024-02-28T03:00:26;2.10;;;0.98;;
66270;SDS011;53063;39.614;8.814;2024-02-28T03:02:52;1.90;;;1.05;;
66270;SDS011;53063;39.614;8.814;2024-02-28T03:05:17;0.60;;;0.35;;
66270;SDS011;53063;39.614;8.814;2024-02-28T03:07:43;1.13;;;0.50;;
66270;SDS011;53063;39.614;8.814;2024-02-28T03:10:09;0.93;;;0.70;;
66270;SDS011;53063;39.614;8.814;2024-02-28T03:12:35;1.52;;;0.32;;
66270;SDS011;53063;39.614;8.814;2024-02-28T03:15:01;0.45;;;0.38;;
66270;SDS011;53063;39.614;8.814;2024-02-28T03:17:28;2.80;;;0.90;;
66270;SDS011;53063;39.614;8.814;2024-02-28T03:19:55;4.93;;;0.90;;
66270;SDS011;53063;39.614;8.814;2024-02-28T03:22:21;1.55;;;0.85;;
66270;SDS011;53063;39.614;8.814;2024-02-28T03:24:47;1.23;;;0.63;;
66270;SDS011;53063;39.614;8.814;2024-02-28T03:27:14;2.65;;;0.90;;
66270;SDS011;53063;39.614;8.814;2024-02-28T03:29:40;0.82;;;0.60;;
66270;SDS011;53063;39.614;8.814;2024-02-28T03:32:05;1.83;;;0.82;;
66270;SDS011;53063;39.614;8.814;2024-02-28T03:34:31;2.58;;;0.70;;
66270;SDS011;53063;39.614;8.814;2024-02-28T03:36:57;1.35;;;0.90;;
66270;SDS011;53063;39.614;8.814;2024-02-28T03:39:23;2.38;;;0.73;;
66270;SDS011;53063;39.614;8.814;2024-02-28T03:41:49;2.10;;;0.70;;
66270;SDS011;53063;39.614;8.814;2024-02-28T03:44:15;1.27;;;0.75;;
66270;SDS011;53063;39.614;8.814;2024-02-28T03:46:41;1.13;;;0.70;;
66270;SDS011;53063;39.614;8.814;2024-02-28T03:49:07;1.33;;;0.77;;
66270;SDS011;53063;39.614;8.814;2024-02-28T03:51:38;1.73;;;0.60;;
66270;SDS011;53063;39.614;8.814;2024-02-28T03:54:07;1.80;;;0.90;;
66270;SDS011;53063;39.614;8.814;2024-02-28T03:56:33;2.08;;;0.80;;
66270;SDS011;53063;39.614;8.814;2024-02-28T03:59:00;3.58;;;0.90;;
66270;SDS011;53063;39.614;8.814;2024-02-28T04:01:26;1.00;;;0.95;;
66270;SDS011;53063;39.614;8.814;2024-02-28T04:03:52;3.13;;;1.40;;
66270;SDS011;53063;39.614;8.814;2024-02-28T04:06:18;6.63;;;2.65;;
66270;SDS011;53063;39.614;8.814;2024-02-28T04:08:44;3.10;;;1.88;;
66270;SDS011;53063;39.614;8.814;2024-02-28T04:11:10;3.53;;;1.50;;
66270;SDS011;53063;39.614;8.814;2024-02-28T04:13:36;4.00;;;1.45;;
66270;SDS011;53063;39.614;8.814;2024-02-28T04:16:03;4.80;;;3.00;;
66270;SDS011;53063;39.614;8.814;2024-02-28T04:18:29;3.80;;;2.60;;
66270;SDS011;53063;39.614;8.814;2024-02-28T04:20:55;3.22;;;2.13;;
66270;SDS011;53063;39.614;8.814;2024-02-28T04:23:21;3.03;;;1.88;;
66270;SDS011;53063;39.614;8.814;2024-02-28T04:25:47;3.05;;;1.58;;
66270;SDS011;53063;39.614;8.814;2024-02-28T04:28:13;2.80;;;1.48;;
66270;SDS011;53063;39.614;8.814;2024-02-28T04:30:39;35.03;;;10.55;;
66270;SDS011;53063;39.614;8.814;2024-02-28T04:33:04;12.75;;;4.90;;
66270;SDS011;53063;39.614;8.814;2024-02-28T04:35:30;12.15;;;4.82;;
66270;SDS011;53063;39.614;8.814;2024-02-28T04:37:56;14.65;;;4.50;;
66270;SDS011;53063;39.614;8.814;2024-02-28T04:40:22;8.07;;;3.60;;
66270;SDS011;53063;39.614;8.814;2024-02-28T04:42:48;6.05;;;2.25;;
66270;SDS011;53063;39.614;8.814;2024-02-28T04:45:13;3.38;;;1.65;;
66270;SDS011;53063;39.614;8.814;2024-02-28T04:47:39;2.00;;;1.60;;
66270;SDS011;53063;39.614;8.814;2024-02-28T04:50:05;2.58;;;1.95;;
66270;SDS011;53063;39.614;8.814;2024-02-28T04:52:32;2.80;;;1.83;;
66270;SDS011;53063;39.614;8.814;2024-02-28T04:54:58;6.03;;;2.10;;
66270;SDS011;53063;39.614;8.814;2024-02-28T04:57:24;2.42;;;1.75;;
66270;SDS011;53063;39.614;8.814;2024-02-28T04:59:50;3.30;;;1.70;;
66270;SDS011;53063;39.614;8.814;2024-02-28T05:02:17;4.82;;;1.95;;
66270;SDS011;53063;39.614;8.814;2024-02-28T05:04:43;3.72;;;1.55;;
66270;SDS011;53063;39.614;8.814;2024-02-28T05:07:09;6.10;;;1.67;;
66270;SDS011;53063;39.614;8.814;2024-02-28T05:09:35;3.47;;;2.15;;
66270;SDS011;53063;39.614;8.814;2024-02-28T05:12:01;1.30;;;0.98;;
66270;SDS011;53063;39.614;8.814;2024-02-28T05:14:27;1.92;;;1.33;;
66270;SDS011;53063;39.614;8.814;2024-02-28T05:16:53;2.30;;;1.73;;
66270;SDS011;53063;39.614;8.814;2024-02-28T05:19:19;5.07;;;2.35;;
66270;SDS011;53063;39.614;8.814;2024-02-28T05:21:45;4.28;;;2.08;;
66270;SDS011;53063;39.614;8.814;2024-02-28T05:24:11;4.35;;;2.28;;
66270;SDS011;53063;39.614;8.814;2024-02-28T05:26:37;2.97;;;1.73;;
66270;SDS011;53063;39.614;8.814;2024-02-28T05:29:04;5.35;;;2.70;;
66270;SDS011;53063;39.614;8.814;2024-02-28T05:31:30;5.35;;;2.85;;
66270;SDS011;53063;39.614;8.814;2024-02-28T05:33:57;4.18;;;2.60;;
66270;SDS011;53063;39.614;8.814;2024-02-28T05:36:24;3.38;;;1.63;;
66270;SDS011;53063;39.614;8.814;2024-02-28T05:38:54;5.28;;;1.70;;
66270;SDS011;53063;39.614;8.814;2024-02-28T05:41:22;3.00;;;1.17;;
66270;SDS011;53063;39.614;8.814;2024-02-28T05:43:48;2.70;;;1.60;;
66270;SDS011;53063;39.614;8.814;2024-02-28T05:46:15;4.60;;;1.08;;
66270;SDS011;53063;39.614;8.814;2024-02-28T05:48:43;3.85;;;1.60;;
66270;SDS011;53063;39.614;8.814;2024-02-28T05:51:10;8.50;;;3.78;;
66270;SDS011;53063;39.614;8.814;2024-02-28T05:53:36;8.38;;;4.00;;
66270;SDS011;53063;39.614;8.814;2024-02-28T05:56:06;6.43;;;2.95;;
66270;SDS011;53063;39.614;8.814;2024-02-28T05:58:42;3.85;;;2.72;;
66270;SDS011;53063;39.614;8.814;2024-02-28T06:01:09;5.63;;;2.13;;
66270;SDS011;53063;39.614;8.814;2024-02-28T06:03:36;8.30;;;3.05;;
66270;SDS011;53063;39.614;8.814;2024-02-28T06:06:02;7.55;;;2.92;;
66270;SDS011;53063;39.614;8.814;2024-02-28T06:08:33;3.92;;;2.80;;
66270;SDS011;53063;39.614;8.814;2024-02-28T06:11:00;7.05;;;3.50;;
66270;SDS011;53063;39.614;8.814;2024-02-28T06:13:26;7.10;;;4.45;;
66270;SDS011;53063;39.614;8.814;2024-02-28T06:15:53;7.65;;;4.40;;
66270;SDS011;53063;39.614;8.814;2024-02-28T06:18:19;4.82;;;3.17;;
66270;SDS011;53063;39.614;8.814;2024-02-28T06:20:48;5.78;;;3.00;;
66270;SDS011;53063;39.614;8.814;2024-02-28T06:23:14;10.50;;;4.20;;
66270;SDS011;53063;39.614;8.814;2024-02-28T06:25:40;49.78;;;15.02;;
66270;SDS011;53063;39.614;8.814;2024-02-28T06:28:06;121.28;;;43.42;;
66270;SDS011;53063;39.614;8.814;2024-02-28T06:30:32;122.03;;;41.22;;
66270;SDS011;53063;39.614;8.814;2024-02-28T06:32:59;137.38;;;48.28;;
66270;SDS011;53063;39.614;8.814;2024-02-28T06:35:25;85.10;;;27.23;;
66270;SDS011;53063;39.614;8.814;2024-02-28T06:37:52;43.35;;;15.82;;
66270;SDS011;53063;39.614;8.814;2024-02-28T06:40:19;21.23;;;7.93;;
66270;SDS011;53063;39.614;8.814;2024-02-28T06:42:45;14.25;;;5.53;;
66270;SDS011;53063;39.614;8.814;2024-02-28T06:45:11;10.43;;;4.35;;
66270;SDS011;53063;39.614;8.814;2024-02-28T06:47:37;9.75;;;4.45;;
66270;SDS011;53063;39.614;8.814;2024-02-28T06:50:04;10.18;;;4.20;;
66270;SDS011;53063;39.614;8.814;2024-02-28T06:52:30;9.90;;;4.03;;
66270;SDS011;53063;39.614;8.814;2024-02-28T06:54:56;10.25;;;5.32;;
66270;SDS011;53063;39.614;8.814;2024-02-28T06:57:23;11.73;;;4.63;;
66270;SDS011;53063;39.614;8.814;2024-02-28T06:59:49;6.80;;;4.38;;
66270;SDS011;53063;39.614;8.814;2024-02-28T07:02:14;9.82;;;4.13;;
66270;SDS011;53063;39.614;8.814;2024-02-28T07:04:41;9.15;;;4.28;;
66270;SDS011;53063;39.614;8.814;2024-02-28T07:07:07;6.57;;;3.60;;
66270;SDS011;53063;39.614;8.814;2024-02-28T07:09:33;11.55;;;6.07;;
66270;SDS011;53063;39.614;8.814;2024-02-28T07:11:59;9.18;;;5.57;;
66270;SDS011;53063;39.614;8.814;2024-02-28T07:14:28;14.50;;;5.65;;
66270;SDS011;53063;39.614;8.814;2024-02-28T07:16:54;28.75;;;9.52;;
66270;SDS011;53063;39.614;8.814;2024-02-28T07:19:20;34.10;;;9.57;;
66270;SDS011;53063;39.614;8.814;2024-02-28T07:21:46;26.10;;;8.77;;
66270;SDS011;53063;39.614;8.814;2024-02-28T07:24:12;26.45;;;8.68;;
66270;SDS011;53063;39.614;8.814;2024-02-28T07:26:38;32.97;;;12.50;;
66270;SDS011;53063;39.614;8.814;2024-02-28T07:29:06;30.77;;;14.98;;
66270;SDS011;53063;39.614;8.814;2024-02-28T07:31:32;27.58;;;8.77;;
66270;SDS011;53063;39.614;8.814;2024-02-28T07:33:58;18.00;;;6.97;;
66270;SDS011;53063;39.614;8.814;2024-02-28T07:36:23;16.15;;;5.80;;
66270;SDS011;53063;39.614;8.814;2024-02-28T07:38:49;14.50;;;4.50;;
66270;SDS011;53063;39.614;8.814;2024-02-28T07:41:15;14.25;;;5.28;;
66270;SDS011;53063;39.614;8.814;2024-02-28T07:43:44;8.73;;;3.90;;
66270;SDS011;53063;39.614;8.814;2024-02-28T07:46:10;11.85;;;3.20;;
66270;SDS011;53063;39.614;8.814;2024-02-28T07:48:39;10.40;;;3.22;;
66270;SDS011;53063;39.614;8.814;2024-02-28T07:51:06;9.13;;;3.10;;
66270;SDS011;53063;39.614;8.814;2024-02-28T07:53:32;5.50;;;2.53;;
66270;SDS011;53063;39.614;8.814;2024-02-28T07:55:58;6.28;;;2.35;;
66270;SDS011;53063;39.614;8.814;2024-02-28T07:58:24;4.85;;;2.00;;
66270;SDS011;53063;39.614;8.814;2024-02-28T08:00:50;3.25;;;1.60;;
66270;SDS011;53063;39.614;8.814;2024-02-28T08:03:19;4.25;;;2.00;;
66270;SDS011;53063;39.614;8.814;2024-02-28T08:05:45;5.45;;;2.78;;
66270;SDS011;53063;39.614;8.814;2024-02-28T08:08:12;8.82;;;3.42;;
66270;SDS011;53063;39.614;8.814;2024-02-28T08:10:38;7.60;;;2.83;;
66270;SDS011;53063;39.614;8.814;2024-02-28T08:13:04;6.20;;;2.67;;
66270;SDS011;53063;39.614;8.814;2024-02-28T08:15:30;4.95;;;2.75;;
66270;SDS011;53063;39.614;8.814;2024-02-28T08:17:57;4.30;;;1.65;;
66270;SDS011;53063;39.614;8.814;2024-02-28T08:20:23;9.07;;;3.33;;
66270;SDS011;53063;39.614;8.814;2024-02-28T08:22:49;27.25;;;13.68;;
66270;SDS011;53063;39.614;8.814;2024-02-28T08:25:18;42.60;;;19.10;;
66270;SDS011;53063;39.614;8.814;2024-02-28T08:27:44;9.50;;;5.32;;
66270;SDS011;53063;39.614;8.814;2024-02-28T08:30:10;11.52;;;6.25;;
66270;SDS011;53063;39.614;8.814;2024-02-28T08:32:36;10.75;;;4.75;;
66270;SDS011;53063;39.614;8.814;2024-02-28T08:35:02;2.03;;;1.30;;
66270;SDS011;53063;39.614;8.814;2024-02-28T08:37:28;2.67;;;0.80;;
66270;SDS011;53063;39.614;8.814;2024-02-28T08:39:54;3.08;;;0.80;;
66270;SDS011;53063;39.614;8.814;2024-02-28T08:42:26;1.08;;;0.73;;
66270;SDS011;53063;39.614;8.814;2024-02-28T08:44:53;1.27;;;0.52;;
66270;SDS011;53063;39.614;8.814;2024-02-28T08:47:23;1.85;;;0.95;;
66270;SDS011;53063;39.614;8.814;2024-02-28T08:49:49;2.88;;;1.40;;
66270;SDS011;53063;39.614;8.814;2024-02-28T08:52:16;4.50;;;1.50;;
66270;SDS011;53063;39.614;8.814;2024-02-28T08:54:42;4.07;;;1.15;;
66270;SDS011;53063;39.614;8.814;2024-02-28T08:57:08;4.18;;;0.70;;
66270;SDS011;53063;39.614;8.814;2024-02-28T08:59:33;3.65;;;0.60;;
66270;SDS011;53063;39.614;8.814;2024-02-28T09:01:59;1.90;;;0.63;;
66270;SDS011;53063;39.614;8.814;2024-02-28T09:04:25;1.25;;;0.70;;
66270;SDS011;53063;39.614;8.814;2024-02-28T09:06:51;1.48;;;0.50;;
66270;SDS011;53063;39.614;8.814;2024-02-28T09:09:20;1.10;;;0.40;;
66270;SDS011;53063;39.614;8.814;2024-02-28T09:11:46;1.50;;;0.70;;
66270;SDS011;53063;39.614;8.814;2024-02-28T09:14:12;1.00;;;0.90;;
66270;SDS011;53063;39.614;8.814;2024-02-28T09:16:38;0.80;;;0.70;;
66270;SDS011;53063;39.614;8.814;2024-02-28T09:19:04;0.82;;;0.77;;
66270;SDS011;53063;39.614;8.814;2024-02-28T09:21:31;1.42;;;0.95;;
66270;SDS011;53063;39.614;8.814;2024-02-28T09:23:57;2.08;;;0.98;;
66270;SDS011;53063;39.614;8.814;2024-02-28T09:26:23;1.50;;;0.93;;
66270;SDS011;53063;39.614;8.814;2024-02-28T09:28:49;1.77;;;0.82;;
66270;SDS011;53063;39.614;8.814;2024-02-28T09:31:14;4.03;;;1.02;;
66270;SDS011;53063;39.614;8.814;2024-02-28T09:33:40;0.93;;;0.60;;
66270;SDS011;53063;39.614;8.814;2024-02-28T09:36:06;11.70;;;5.07;;
66270;SDS011;53063;39.614;8.814;2024-02-28T09:38:34;3.50;;;1.30;;
66270;SDS011;53063;39.614;8.814;2024-02-28T09:41:00;2.35;;;1.00;;
66270;SDS011;53063;39.614;8.814;2024-02-28T09:43:30;1.17;;;0.80;;
66270;SDS011;53063;39.614;8.814;2024-02-28T09:46:03;4.55;;;1.05;;
66270;SDS011;53063;39.614;8.814;2024-02-28T09:48:30;3.33;;;0.70;;
66270;SDS011;53063;39.614;8.814;2024-02-28T09:50:57;1.88;;;0.80;;
66270;SDS011;53063;39.614;8.814;2024-02-28T09:53:23;1.60;;;1.10;;
66270;SDS011;53063;39.614;8.814;2024-02-28T09:55:50;4.50;;;1.80;;
66270;SDS011;53063;39.614;8.814;2024-02-28T09:58:16;6.20;;;3.70;;
66270;SDS011;53063;39.614;8.814;2024-02-28T10:00:43;5.22;;;1.92;;
66270;SDS011;53063;39.614;8.814;2024-02-28T10:03:11;6.20;;;1.90;;
66270;SDS011;53063;39.614;8.814;2024-02-28T10:05:39;3.50;;;1.50;;
66270;SDS011;53063;39.614;8.814;2024-02-28T10:08:05;3.35;;;1.25;;
66270;SDS011;53063;39.614;8.814;2024-02-28T10:10:31;3.15;;;1.27;;
66270;SDS011;53063;39.614;8.814;2024-02-28T10:12:57;1.13;;;0.80;;
66270;SDS011;53063;39.614;8.814;2024-02-28T10:15:26;3.42;;;1.05;;
66270;SDS011;53063;39.614;8.814;2024-02-28T10:17:52;3.13;;;1.15;;
66270;SDS011;53063;39.614;8.814;2024-02-28T10:20:18;2.20;;;1.00;;
66270;SDS011;53063;39.614;8.814;2024-02-28T10:22:44;2.05;;;0.80;;
66270;SDS011;53063;39.614;8.814;2024-02-28T10:25:10;2.22;;;0.98;;
66270;SDS011;53063;39.614;8.814;2024-02-28T10:27:36;1.45;;;0.77;;
66270;SDS011;53063;39.614;8.814;2024-02-28T10:30:02;2.40;;;0.77;;
66270;SDS011;53063;39.614;8.814;2024-02-28T10:32:32;1.92;;;0.50;;
66270;SDS011;53063;39.614;8.814;2024-02-28T10:35:02;3.40;;;0.60;;
66270;SDS011;53063;39.614;8.814;2024-02-28T10:37:29;1.30;;;0.40;;
66270;SDS011;53063;39.614;8.814;2024-02-28T10:39:58;1.73;;;0.80;;
66270;SDS011;53063;39.614;8.814;2024-02-28T10:42:29;1.75;;;1.20;;
66270;SDS011;53063;39.614;8.814;2024-02-28T10:44:56;1.55;;;1.05;;
66270;SDS011;53063;39.614;8.814;2024-02-28T10:47:24;2.47;;;0.82;;
66270;SDS011;53063;39.614;8.814;2024-02-28T10:49:52;3.90;;;1.60;;
66270;SDS011;53063;39.614;8.814;2024-02-28T10:52:18;3.75;;;1.48;;
66270;SDS011;53063;39.614;8.814;2024-02-28T10:54:49;8.48;;;2.65;;
66270;SDS011;53063;39.614;8.814;2024-02-28T10:57:21;2.30;;;1.35;;
66270;SDS011;53063;39.614;8.814;2024-02-28T10:59:49;3.35;;;1.02;;
66270;SDS011;53063;39.614;8.814;2024-02-28T11:02:16;1.83;;;0.65;;
66270;SDS011;53063;39.614;8.814;2024-02-28T11:04:42;12.00;;;3.92;;
66270;SDS011;53063;39.614;8.814;2024-02-28T11:07:09;14.68;;;4.40;;
66270;SDS011;53063;39.614;8.814;2024-02-28T11:09:35;20.50;;;8.07;;
66270;SDS011;53063;39.614;8.814;2024-02-28T11:12:03;6.38;;;1.63;;
66270;SDS011;53063;39.614;8.814;2024-02-28T11:14:29;5.88;;;2.42;;
66270;SDS011;53063;39.614;8.814;2024-02-28T11:19:28;7.25;;;2.95;;
66270;SDS011;53063;39.614;8.814;2024-02-28T11:21:56;6.40;;;3.65;;
66270;SDS011;53063;39.614;8.814;2024-02-28T11:24:24;10.07;;;5.55;;
66270;SDS011;53063;39.614;8.814;2024-02-28T11:26:53;12.32;;;5.80;;
66270;SDS011;53063;39.614;8.814;2024-02-28T11:29:23;5.75;;;3.13;;
66270;SDS011;53063;39.614;8.814;2024-02-28T11:31:50;5.53;;;3.15;;
66270;SDS011;53063;39.614;8.814;2024-02-28T11:34:17;2.85;;;1.60;;
66270;SDS011;53063;39.614;8.814;2024-02-28T11:36:43;4.25;;;2.13;;
66270;SDS011;53063;39.614;8.814;2024-02-28T11:39:13;13.32;;;6.30;;
66270;SDS011;53063;39.614;8.814;2024-02-28T11:41:39;4.22;;;2.78;;
66270;SDS011;53063;39.614;8.814;2024-02-28T11:44:05;6.03;;;3.90;;
66270;SDS011;53063;39.614;8.814;2024-02-28T11:46:32;29.73;;;11.05;;
66270;SDS011;53063;39.614;8.814;2024-02-28T11:48:58;10.10;;;4.82;;
66270;SDS011;53063;39.614;8.814;2024-02-28T11:51:26;8.27;;;4.82;;
66270;SDS011;53063;39.614;8.814;2024-02-28T11:53:52;5.05;;;3.03;;
66270;SDS011;53063;39.614;8.814;2024-02-28T11:56:19;5.85;;;3.40;;
66270;SDS011;53063;39.614;8.814;2024-02-28T11:58:52;14.15;;;5.75;;
66270;SDS011;53063;39.614;8.814;2024-02-28T12:01:41;12.32;;;6.13;;
66270;SDS011;53063;39.614;8.814;2024-02-28T12:04:09;5.05;;;2.97;;
66270;SDS011;53063;39.614;8.814;2024-02-28T12:06:36;8.98;;;5.05;;
66270;SDS011;53063;39.614;8.814;2024-02-28T12:09:06;8.65;;;5.00;;
66270;SDS011;53063;39.614;8.814;2024-02-28T12:11:36;4.28;;;3.00;;
66270;SDS011;53063;39.614;8.814;2024-02-28T12:14:03;7.03;;;3.88;;
66270;SDS011;53063;39.614;8.814;2024-02-28T12:16:34;5.72;;;3.10;;
66270;SDS011;53063;39.614;8.814;2024-02-28T12:19:06;2.85;;;2.13;;
66270;SDS011;53063;39.614;8.814;2024-02-28T12:21:33;4.20;;;1.95;;
66270;SDS011;53063;39.614;8.814;2024-02-28T12:23:59;2.13;;;1.00;;
66270;SDS011;53063;39.614;8.814;2024-02-28T12:26:26;2.60;;;1.23;;
66270;SDS011;53063;39.614;8.814;2024-02-28T12:28:52;3.15;;;1.30;;
66270;SDS011;53063;39.614;8.814;2024-02-28T12:31:18;2.50;;;1.10;;
66270;SDS011;53063;39.614;8.814;2024-02-28T12:33:45;4.55;;;1.58;;
66270;SDS011;53063;39.614;8.814;2024-02-28T12:36:11;1.75;;;1.20;;
66270;SDS011;53063;39.614;8.814;2024-02-28T12:38:36;1.75;;;1.23;;
66270;SDS011;53063;39.614;8.814;2024-02-28T12:41:03;3.80;;;1.58;;
66270;SDS011;53063;39.614;8.814;2024-02-28T12:43:31;3.63;;;1.50;;
66270;SDS011;53063;39.614;8.814;2024-02-28T12:45:58;5.47;;;2.83;;
66270;SDS011;53063;39.614;8.814;2024-02-28T12:48:24;5.28;;;2.10;;
66270;SDS011;53063;39.614;8.814;2024-02-28T12:50:50;3.35;;;1.88;;
66270;SDS011;53063;39.614;8.814;2024-02-28T12:53:16;3.97;;;1.80;;
66270;SDS011;53063;39.614;8.814;2024-02-28T12:55:43;2.45;;;1.60;;
66270;SDS011;53063;39.614;8.814;2024-02-28T12:58:10;9.85;;;4.22;;
66270;SDS011;53063;39.614;8.814;2024-02-28T13:00:36;4.95;;;2.03;;
66270;SDS011;53063;39.614;8.814;2024-02-28T13:03:02;4.13;;;2.47;;
66270;SDS011;53063;39.614;8.814;2024-02-28T13:05:29;20.48;;;8.32;;
66270;SDS011;53063;39.614;8.814;2024-02-28T13:07:55;3.88;;;1.80;;
66270;SDS011;53063;39.614;8.814;2024-02-28T13:10:21;3.40;;;1.75;;
66270;SDS011;53063;39.614;8.814;2024-02-28T13:12:47;8.45;;;5.18;;
66270;SDS011;53063;39.614;8.814;2024-02-28T13:15:13;7.95;;;3.80;;
66270;SDS011;53063;39.614;8.814;2024-02-28T13:17:39;6.97;;;2.80;;
66270;SDS011;53063;39.614;8.814;2024-02-28T13:20:07;7.93;;;4.00;;
66270;SDS011;53063;39.614;8.814;2024-02-28T13:22:33;15.35;;;7.35;;
66270;SDS011;53063;39.614;8.814;2024-02-28T13:24:59;4.88;;;2.42;;
66270;SDS011;53063;39.614;8.814;2024-02-28T13:27:25;6.18;;;2.90;;
66270;SDS011;53063;39.614;8.814;2024-02-28T13:29:52;7.78;;;4.32;;
66270;SDS011;53063;39.614;8.814;2024-02-28T13:32:19;17.40;;;8.50;;
66270;SDS011;53063;39.614;8.814;2024-02-28T13:34:45;6.85;;;2.95;;
66270;SDS011;53063;39.614;8.814;2024-02-28T13:37:11;5.60;;;4.25;;
66270;SDS011;53063;39.614;8.814;2024-02-28T13:39:37;2.17;;;1.48;;
66270;SDS011;53063;39.614;8.814;2024-02-28T13:42:03;1.75;;;1.17;;
66270;SDS011;53063;39.614;8.814;2024-02-28T13:44:31;2.85;;;1.52;;
66270;SDS011;53063;39.614;8.814;2024-02-28T13:46:58;1.60;;;1.08;;
66270;SDS011;53063;39.614;8.814;2024-02-28T13:49:24;1.33;;;1.00;;
66270;SDS011;53063;39.614;8.814;2024-02-28T13:51:50;0.60;;;0.52;;
66270;SDS011;53063;39.614;8.814;2024-02-28T13:54:16;2.40;;;0.70;;
66270;SDS011;53063;39.614;8.814;2024-02-28T13:56:43;1.67;;;1.10;;
66270;SDS011;53063;39.614;8.814;2024-02-28T13:59:09;0.80;;;0.50;;
66270;SDS011;53063;39.614;8.814;2024-02-28T14:01:35;1.15;;;0.80;;
66270;SDS011;53063;39.614;8.814;2024-02-28T14:04:01;2.42;;;1.33;;
66270;SDS011;53063;39.614;8.814;2024-02-28T14:06:28;1.73;;;1.02;;
66270;SDS011;53063;39.614;8.814;2024-02-28T14:08:55;1.98;;;1.20;;
66270;SDS011;53063;39.614;8.814;2024-02-28T14:11:22;1.63;;;0.52;;
66270;SDS011;53063;39.614;8.814;2024-02-28T14:13:49;2.30;;;0.65;;
66270;SDS011;53063;39.614;8.814;2024-02-28T14:16:15;1.70;;;0.80;;
66270;SDS011;53063;39.614;8.814;2024-02-28T14:18:41;1.48;;;0.75;;
66270;SDS011;53063;39.614;8.814;2024-02-28T14:21:07;2.47;;;1.15;;
66270;SDS011;53063;39.614;8.814;2024-02-28T14:23:33;2.33;;;1.50;;
66270;SDS011;53063;39.614;8.814;2024-02-28T14:25:59;2.38;;;1.23;;
66270;SDS011;53063;39.614;8.814;2024-02-28T14:28:25;1.15;;;0.82;;
66270;SDS011;53063;39.614;8.814;2024-02-28T14:30:51;2.22;;;0.90;;
66270;SDS011;53063;39.614;8.814;2024-02-28T14:33:17;2.80;;;1.35;;
66270;SDS011;53063;39.614;8.814;2024-02-28T14:35:43;5.70;;;1.33;;
66270;SDS011;53063;39.614;8.814;2024-02-28T14:38:09;5.55;;;1.60;;
66270;SDS011;53063;39.614;8.814;2024-02-28T14:40:35;10.80;;;4.70;;
66270;SDS011;53063;39.614;8.814;2024-02-28T14:43:01;7.72;;;3.35;;
66270;SDS011;53063;39.614;8.814;2024-02-28T14:45:27;9.38;;;5.32;;